sensor_id;sensor_type;location;lat;lon;timestamp;temperature;humidity
360;DHT22;168;48.872;9.226;2023-07-08T00:00:21;22.80;56.40
360;DHT22;168;48.872;9.226;2023-07-08T00:02:49;22.80;56.40
360;DHT22;168;48.872;9.226;2023-07-08T00:05:18;22.80;56.60
360;DHT22;168;48.872;9.226;2023-07-08T00:07:46;22.80;56.60
360;DHT22;168;48.872;9.226;2023-07-08T00:10:15;22.80;56.50
360;DHT22;168;48.872;9.226;2023-07-08T00:12:46;22.70;56.60
360;DHT22;168;48.872;9.226;2023-07-08T00:15:14;22.60;56.80
360;DHT22;168;48.872;9.226;2023-07-08T00:17:43;22.60;56.90
360;DHT22;168;48.872;9.226;2023-07-08T00:20:16;22.70;56.90
360;DHT22;168;48.872;9.226;2023-07-08T00:22:44;22.70;56.80
360;DHT22;168;48.872;9.226;2023-07-08T00:25:13;22.60;57.00
360;DHT22;168;48.872;9.226;2023-07-08T00:27:41;22.60;57.20
360;DHT22;168;48.872;9.226;2023-07-08T00:30:19;22.60;57.30
360;DHT22;168;48.872;9.226;2023-07-08T00:32:47;22.50;57.50
360;DHT22;168;48.872;9.226;2023-07-08T00:35:21;22.40;57.70
360;DHT22;168;48.872;9.226;2023-07-08T00:37:50;22.50;57.60
360;DHT22;168;48.872;9.226;2023-07-08T00:40:20;22.50;57.70
360;DHT22;168;48.872;9.226;2023-07-08T00:42:48;22.50;57.60
360;DHT22;168;48.872;9.226;2023-07-08T00:45:24;22.50;57.80
360;DHT22;168;48.872;9.226;2023-07-08T00:47:55;22.40;57.70
360;DHT22;168;48.872;9.226;2023-07-08T00:50:23;22.40;57.90
360;DHT22;168;48.872;9.226;2023-07-08T00:53:14;22.40;57.70
360;DHT22;168;48.872;9.226;2023-07-08T00:55:39;22.30;57.80
360;DHT22;168;48.872;9.226;2023-07-08T00:58:06;22.30;57.80
360;DHT22;168;48.872;9.226;2023-07-08T01:00:35;22.30;58.00
360;DHT22;168;48.872;9.226;2023-07-08T01:03:03;22.30;58.00
360;DHT22;168;48.872;9.226;2023-07-08T01:05:31;22.30;58.20
360;DHT22;168;48.872;9.226;2023-07-08T01:08:02;22.30;58.00
360;DHT22;168;48.872;9.226;2023-07-08T01:10:33;22.30;57.90
360;DHT22;168;48.872;9.226;2023-07-08T01:13:05;22.20;58.20
360;DHT22;168;48.872;9.226;2023-07-08T01:15:40;22.20;58.30
360;DHT22;168;48.872;9.226;2023-07-08T01:18:09;22.10;58.80
360;DHT22;168;48.872;9.226;2023-07-08T01:20:37;22.20;59.00
360;DHT22;168;48.872;9.226;2023-07-08T01:23:06;22.10;59.00
360;DHT22;168;48.872;9.226;2023-07-08T01:25:33;22.00;59.40
360;DHT22;168;48.872;9.226;2023-07-08T01:28:02;22.00;59.40
360;DHT22;168;48.872;9.226;2023-07-08T01:30:29;21.90;59.20
360;DHT22;168;48.872;9.226;2023-07-08T01:33:01;21.90;59.30
360;DHT22;168;48.872;9.226;2023-07-08T01:35:30;21.70;59.30
360;DHT22;168;48.872;9.226;2023-07-08T01:37:59;21.70;59.30
360;DHT22;168;48.872;9.226;2023-07-08T01:40:30;21.80;59.30
360;DHT22;168;48.872;9.226;2023-07-08T01:42:58;21.80;59.10
360;DHT22;168;48.872;9.226;2023-07-08T01:45:28;21.80;58.70
360;DHT22;168;48.872;9.226;2023-07-08T01:47:59;21.80;58.70
360;DHT22;168;48.872;9.226;2023-07-08T01:50:28;21.80;58.60
360;DHT22;168;48.872;9.226;2023-07-08T01:52:58;21.70;58.50
360;DHT22;168;48.872;9.226;2023-07-08T01:55:27;21.70;58.60
360;DHT22;168;48.872;9.226;2023-07-08T01:57:57;21.60;59.00
360;DHT22;168;48.872;9.226;2023-07-08T02:00:24;21.60;59.20
360;DHT22;168;48.872;9.226;2023-07-08T02:02:52;21.50;59.40
360;DHT22;168;48.872;9.226;2023-07-08T02:05:19;21.50;59.70
360;DHT22;168;48.872;9.226;2023-07-08T02:07:46;21.50;59.90
360;DHT22;168;48.872;9.226;2023-07-08T02:10:14;21.60;59.90
360;DHT22;168;48.872;9.226;2023-07-08T02:12:41;21.50;59.80
360;DHT22;168;48.872;9.226;2023-07-08T02:15:11;21.50;59.90
360;DHT22;168;48.872;9.226;2023-07-08T02:17:38;21.40;60.00
360;DHT22;168;48.872;9.226;2023-07-08T02:20:06;21.40;60.00
360;DHT22;168;48.872;9.226;2023-07-08T02:22:34;21.30;60.00
360;DHT22;168;48.872;9.226;2023-07-08T02:25:03;21.30;60.40
360;DHT22;168;48.872;9.226;2023-07-08T02:27:31;21.20;60.60
360;DHT22;168;48.872;9.226;2023-07-08T02:29:58;21.20;60.90
360;DHT22;168;48.872;9.226;2023-07-08T02:32:28;21.20;61.30
360;DHT22;168;48.872;9.226;2023-07-08T02:34:55;21.20;61.40
360;DHT22;168;48.872;9.226;2023-07-08T02:37:22;21.10;61.50
360;DHT22;168;48.872;9.226;2023-07-08T02:39:50;21.10;61.70
360;DHT22;168;48.872;9.226;2023-07-08T02:42:17;21.00;61.70
360;DHT22;168;48.872;9.226;2023-07-08T02:44:44;21.00;61.90
360;DHT22;168;48.872;9.226;2023-07-08T02:47:12;21.00;62.10
360;DHT22;168;48.872;9.226;2023-07-08T02:49:40;20.90;62.30
360;DHT22;168;48.872;9.226;2023-07-08T02:52:08;20.90;62.60
360;DHT22;168;48.872;9.226;2023-07-08T02:54:35;20.90;62.90
360;DHT22;168;48.872;9.226;2023-07-08T02:57:03;20.90;62.80
360;DHT22;168;48.872;9.226;2023-07-08T02:59:30;20.80;62.80
360;DHT22;168;48.872;9.226;2023-07-08T03:01:58;20.80;62.90
360;DHT22;168;48.872;9.226;2023-07-08T03:04:25;20.70;63.30
360;DHT22;168;48.872;9.226;2023-07-08T03:06:54;20.70;63.60
360;DHT22;168;48.872;9.226;2023-07-08T03:09:21;20.70;63.60
360;DHT22;168;48.872;9.226;2023-07-08T03:11:48;20.80;63.10
360;DHT22;168;48.872;9.226;2023-07-08T03:14:16;20.80;63.00
360;DHT22;168;48.872;9.226;2023-07-08T03:16:43;20.70;63.00
360;DHT22;168;48.872;9.226;2023-07-08T03:19:11;20.70;63.70
360;DHT22;168;48.872;9.226;2023-07-08T03:21:41;20.60;64.00
360;DHT22;168;48.872;9.226;2023-07-08T03:24:11;20.70;64.00
360;DHT22;168;48.872;9.226;2023-07-08T03:26:39;20.70;64.20
360;DHT22;168;48.872;9.226;2023-07-08T03:29:12;20.60;64.20
360;DHT22;168;48.872;9.226;2023-07-08T03:31:40;20.60;64.10
360;DHT22;168;48.872;9.226;2023-07-08T03:34:10;20.60;64.00
360;DHT22;168;48.872;9.226;2023-07-08T03:36:41;20.60;64.30
360;DHT22;168;48.872;9.226;2023-07-08T03:39:17;20.50;64.60
360;DHT22;168;48.872;9.226;2023-07-08T03:41:45;20.50;64.90
360;DHT22;168;48.872;9.226;2023-07-08T03:44:12;20.50;65.00
360;DHT22;168;48.872;9.226;2023-07-08T03:46:42;20.50;65.00
360;DHT22;168;48.872;9.226;2023-07-08T03:49:10;20.40;64.80
360;DHT22;168;48.872;9.226;2023-07-08T03:51:39;20.40;65.30
360;DHT22;168;48.872;9.226;2023-07-08T03:54:11;20.40;65.30
360;DHT22;168;48.872;9.226;2023-07-08T03:56:40;20.40;65.30
360;DHT22;168;48.872;9.226;2023-07-08T03:59:08;20.40;65.40
360;DHT22;168;48.872;9.226;2023-07-08T04:01:36;20.40;65.60
360;DHT22;168;48.872;9.226;2023-07-08T04:04:08;20.40;65.90
360;DHT22;168;48.872;9.226;2023-07-08T04:06:38;20.40;65.90
360;DHT22;168;48.872;9.226;2023-07-08T04:09:05;20.30;66.00
360;DHT22;168;48.872;9.226;2023-07-08T04:11:32;20.30;66.20
360;DHT22;168;48.872;9.226;2023-07-08T04:14:01;20.30;66.90
360;DHT22;168;48.872;9.226;2023-07-08T04:16:31;20.40;66.80
360;DHT22;168;48.872;9.226;2023-07-08T04:18:59;20.40;66.90
360;DHT22;168;48.872;9.226;2023-07-08T04:21:27;20.40;66.70
360;DHT22;168;48.872;9.226;2023-07-08T04:23:56;20.50;67.20
360;DHT22;168;48.872;9.226;2023-07-08T04:26:23;20.40;67.40
360;DHT22;168;48.872;9.226;2023-07-08T04:28:50;20.40;68.30
360;DHT22;168;48.872;9.226;2023-07-08T04:31:19;20.50;67.90
360;DHT22;168;48.872;9.226;2023-07-08T04:33:46;20.50;67.60
360;DHT22;168;48.872;9.226;2023-07-08T04:36:14;20.70;66.70
360;DHT22;168;48.872;9.226;2023-07-08T04:38:41;20.70;66.10
360;DHT22;168;48.872;9.226;2023-07-08T04:41:12;20.80;66.10
360;DHT22;168;48.872;9.226;2023-07-08T04:43:39;20.90;65.30
360;DHT22;168;48.872;9.226;2023-07-08T04:46:17;20.90;64.90
360;DHT22;168;48.872;9.226;2023-07-08T04:48:47;21.10;64.80
360;DHT22;168;48.872;9.226;2023-07-08T04:51:14;21.20;64.80
360;DHT22;168;48.872;9.226;2023-07-08T04:53:43;21.20;65.20
360;DHT22;168;48.872;9.226;2023-07-08T04:56:10;21.30;65.40
360;DHT22;168;48.872;9.226;2023-07-08T04:58:38;21.50;64.90
360;DHT22;168;48.872;9.226;2023-07-08T05:01:05;21.60;64.70
360;DHT22;168;48.872;9.226;2023-07-08T05:03:32;21.80;64.00
360;DHT22;168;48.872;9.226;2023-07-08T05:06:01;21.90;63.50
360;DHT22;168;48.872;9.226;2023-07-08T05:08:29;22.10;62.90
360;DHT22;168;48.872;9.226;2023-07-08T05:10:56;22.20;63.10
360;DHT22;168;48.872;9.226;2023-07-08T05:13:23;22.30;62.70
360;DHT22;168;48.872;9.226;2023-07-08T05:15:51;22.40;62.50
360;DHT22;168;48.872;9.226;2023-07-08T05:18:18;22.50;62.30
360;DHT22;168;48.872;9.226;2023-07-08T05:20:55;22.50;62.70
360;DHT22;168;48.872;9.226;2023-07-08T05:59:43;23.40;62.70
360;DHT22;168;48.872;9.226;2023-07-08T06:02:12;23.40;62.60
360;DHT22;168;48.872;9.226;2023-07-08T06:04:45;23.50;62.50
360;DHT22;168;48.872;9.226;2023-07-08T06:07:12;23.50;62.70
360;DHT22;168;48.872;9.226;2023-07-08T06:09:40;23.60;63.00
360;DHT22;168;48.872;9.226;2023-07-08T06:12:07;23.70;63.40
360;DHT22;168;48.872;9.226;2023-07-08T06:14:35;23.70;63.50
360;DHT22;168;48.872;9.226;2023-07-08T06:17:04;23.80;63.20
360;DHT22;168;48.872;9.226;2023-07-08T06:19:32;23.90;62.90
360;DHT22;168;48.872;9.226;2023-07-08T06:22:00;24.10;63.00
360;DHT22;168;48.872;9.226;2023-07-08T06:24:27;24.20;62.60
360;DHT22;168;48.872;9.226;2023-07-08T06:26:55;24.30;61.60
360;DHT22;168;48.872;9.226;2023-07-08T06:29:24;24.40;62.20
360;DHT22;168;48.872;9.226;2023-07-08T06:31:51;24.50;62.40
360;DHT22;168;48.872;9.226;2023-07-08T06:34:21;24.60;61.70
360;DHT22;168;48.872;9.226;2023-07-08T06:36:50;24.70;61.30
360;DHT22;168;48.872;9.226;2023-07-08T06:39:17;24.70;61.50
360;DHT22;168;48.872;9.226;2023-07-08T06:41:45;24.80;62.10
360;DHT22;168;48.872;9.226;2023-07-08T06:44:12;24.90;62.20
360;DHT22;168;48.872;9.226;2023-07-08T06:46:40;25.00;62.20
360;DHT22;168;48.872;9.226;2023-07-08T06:49:07;25.10;61.90
360;DHT22;168;48.872;9.226;2023-07-08T06:51:37;25.20;61.50
360;DHT22;168;48.872;9.226;2023-07-08T06:54:05;25.40;60.90
360;DHT22;168;48.872;9.226;2023-07-08T06:56:37;25.50;61.00
360;DHT22;168;48.872;9.226;2023-07-08T06:59:05;25.60;60.80
360;DHT22;168;48.872;9.226;2023-07-08T07:01:33;25.80;59.60
360;DHT22;168;48.872;9.226;2023-07-08T07:04:00;26.00;59.00
360;DHT22;168;48.872;9.226;2023-07-08T07:06:29;26.20;58.20
360;DHT22;168;48.872;9.226;2023-07-08T07:08:57;26.40;58.50
360;DHT22;168;48.872;9.226;2023-07-08T07:11:25;26.70;57.40
360;DHT22;168;48.872;9.226;2023-07-08T07:13:51;26.90;57.00
360;DHT22;168;48.872;9.226;2023-07-08T07:16:18;27.00;57.30
360;DHT22;168;48.872;9.226;2023-07-08T07:18:46;27.10;56.90
360;DHT22;168;48.872;9.226;2023-07-08T07:21:13;27.40;56.70
360;DHT22;168;48.872;9.226;2023-07-08T07:23:40;27.40;57.00
360;DHT22;168;48.872;9.226;2023-07-08T07:26:09;27.50;57.40
360;DHT22;168;48.872;9.226;2023-07-08T07:28:36;27.80;55.80
360;DHT22;168;48.872;9.226;2023-07-08T07:31:04;27.80;55.70
360;DHT22;168;48.872;9.226;2023-07-08T07:33:34;27.90;55.10
360;DHT22;168;48.872;9.226;2023-07-08T07:36:01;27.90;55.60
360;DHT22;168;48.872;9.226;2023-07-08T07:38:32;28.00;55.50
360;DHT22;168;48.872;9.226;2023-07-08T07:40:59;27.90;55.00
360;DHT22;168;48.872;9.226;2023-07-08T07:43:33;27.80;56.40
360;DHT22;168;48.872;9.226;2023-07-08T07:46:01;27.80;57.40
360;DHT22;168;48.872;9.226;2023-07-08T07:48:31;27.90;58.10
360;DHT22;168;48.872;9.226;2023-07-08T07:50:58;27.80;57.80
360;DHT22;168;48.872;9.226;2023-07-08T07:53:26;27.80;58.00
360;DHT22;168;48.872;9.226;2023-07-08T07:55:57;27.80;58.30
360;DHT22;168;48.872;9.226;2023-07-08T07:58:24;27.90;57.70
360;DHT22;168;48.872;9.226;2023-07-08T08:00:53;28.00;57.40
360;DHT22;168;48.872;9.226;2023-07-08T08:03:21;28.20;56.80
360;DHT22;168;48.872;9.226;2023-07-08T08:05:48;28.40;56.10
360;DHT22;168;48.872;9.226;2023-07-08T08:08:16;28.50;56.40
360;DHT22;168;48.872;9.226;2023-07-08T08:10:43;28.50;56.00
360;DHT22;168;48.872;9.226;2023-07-08T08:13:11;28.50;56.30
360;DHT22;168;48.872;9.226;2023-07-08T08:15:38;28.60;55.00
360;DHT22;168;48.872;9.226;2023-07-08T08:18:07;28.70;54.50
360;DHT22;168;48.872;9.226;2023-07-08T08:20:35;28.70;52.70
360;DHT22;168;48.872;9.226;2023-07-08T08:23:02;28.70;51.90
360;DHT22;168;48.872;9.226;2023-07-08T08:25:29;28.80;51.90
360;DHT22;168;48.872;9.226;2023-07-08T08:27:56;28.90;52.30
360;DHT22;168;48.872;9.226;2023-07-08T08:30:24;29.00;52.30
360;DHT22;168;48.872;9.226;2023-07-08T08:32:51;28.90;52.10
360;DHT22;168;48.872;9.226;2023-07-08T08:35:20;28.90;53.20
360;DHT22;168;48.872;9.226;2023-07-08T08:37:47;28.90;53.00
360;DHT22;168;48.872;9.226;2023-07-08T08:40:18;28.80;53.50
360;DHT22;168;48.872;9.226;2023-07-08T08:42:51;28.80;53.40
360;DHT22;168;48.872;9.226;2023-07-08T08:45:21;28.80;53.20
360;DHT22;168;48.872;9.226;2023-07-08T08:47:53;28.80;53.40
360;DHT22;168;48.872;9.226;2023-07-08T08:50:30;28.80;53.70
360;DHT22;168;48.872;9.226;2023-07-08T08:53:00;29.00;53.30
360;DHT22;168;48.872;9.226;2023-07-08T08:55:28;29.10;52.50
360;DHT22;168;48.872;9.226;2023-07-08T08:58:02;29.20;52.70
360;DHT22;168;48.872;9.226;2023-07-08T09:00:41;29.30;53.00
360;DHT22;168;48.872;9.226;2023-07-08T09:03:15;29.30;52.50
360;DHT22;168;48.872;9.226;2023-07-08T09:05:45;29.30;52.70
360;DHT22;168;48.872;9.226;2023-07-08T09:08:16;29.30;52.10
360;DHT22;168;48.872;9.226;2023-07-08T09:10:46;29.50;51.90
360;DHT22;168;48.872;9.226;2023-07-08T09:13:19;29.50;51.50
360;DHT22;168;48.872;9.226;2023-07-08T09:15:54;29.40;51.60
360;DHT22;168;48.872;9.226;2023-07-08T09:18:43;29.40;51.30
360;DHT22;168;48.872;9.226;2023-07-08T09:21:18;29.40;51.90
360;DHT22;168;48.872;9.226;2023-07-08T09:23:47;29.40;52.40
360;DHT22;168;48.872;9.226;2023-07-08T09:26:19;29.60;52.50
360;DHT22;168;48.872;9.226;2023-07-08T09:28:49;29.80;52.50
360;DHT22;168;48.872;9.226;2023-07-08T09:31:22;30.00;51.40
360;DHT22;168;48.872;9.226;2023-07-08T09:33:51;30.10;50.90
360;DHT22;168;48.872;9.226;2023-07-08T09:36:23;30.30;50.90
360;DHT22;168;48.872;9.226;2023-07-08T09:38:51;30.40;51.50
360;DHT22;168;48.872;9.226;2023-07-08T09:41:29;30.70;51.00
360;DHT22;168;48.872;9.226;2023-07-08T09:44:14;30.90;50.20
360;DHT22;168;48.872;9.226;2023-07-08T09:46:42;31.00;50.30
360;DHT22;168;48.872;9.226;2023-07-08T09:49:16;31.30;49.70
360;DHT22;168;48.872;9.226;2023-07-08T09:51:45;31.40;49.60
360;DHT22;168;48.872;9.226;2023-07-08T09:54:16;31.60;49.00
360;DHT22;168;48.872;9.226;2023-07-08T09:56:47;31.70;48.40
360;DHT22;168;48.872;9.226;2023-07-08T09:59:19;31.80;48.80
360;DHT22;168;48.872;9.226;2023-07-08T10:01:48;31.90;47.10
360;DHT22;168;48.872;9.226;2023-07-08T10:04:18;31.80;47.50
360;DHT22;168;48.872;9.226;2023-07-08T10:06:47;31.60;48.10
360;DHT22;168;48.872;9.226;2023-07-08T10:09:19;31.70;46.80
360;DHT22;168;48.872;9.226;2023-07-08T10:11:52;31.60;47.30
360;DHT22;168;48.872;9.226;2023-07-08T10:14:26;31.60;47.30
360;DHT22;168;48.872;9.226;2023-07-08T10:16:54;31.60;46.70
360;DHT22;168;48.872;9.226;2023-07-08T10:19:21;31.70;46.60
360;DHT22;168;48.872;9.226;2023-07-08T10:21:59;31.70;46.90
360;DHT22;168;48.872;9.226;2023-07-08T10:24:43;31.70;46.70
360;DHT22;168;48.872;9.226;2023-07-08T10:27:23;31.60;47.20
360;DHT22;168;48.872;9.226;2023-07-08T10:29:56;31.60;48.50
360;DHT22;168;48.872;9.226;2023-07-08T10:32:39;31.60;48.60
360;DHT22;168;48.872;9.226;2023-07-08T10:35:15;31.70;48.50
360;DHT22;168;48.872;9.226;2023-07-08T10:37:55;31.70;48.50
360;DHT22;168;48.872;9.226;2023-07-08T10:40:34;31.90;49.80
360;DHT22;168;48.872;9.226;2023-07-08T10:43:23;32.00;48.90
360;DHT22;168;48.872;9.226;2023-07-08T10:46:01;32.00;49.30
360;DHT22;168;48.872;9.226;2023-07-08T10:48:47;32.10;49.40
360;DHT22;168;48.872;9.226;2023-07-08T10:51:23;32.10;48.90
360;DHT22;168;48.872;9.226;2023-07-08T10:54:05;32.10;49.90
360;DHT22;168;48.872;9.226;2023-07-08T10:56:39;32.00;50.50
360;DHT22;168;48.872;9.226;2023-07-08T10:59:24;32.00;50.10
360;DHT22;168;48.872;9.226;2023-07-08T11:02:19;31.90;50.80
360;DHT22;168;48.872;9.226;2023-07-08T11:04:59;31.90;50.60
360;DHT22;168;48.872;9.226;2023-07-08T11:07:35;31.90;50.60
360;DHT22;168;48.872;9.226;2023-07-08T11:10:12;32.00;50.90
360;DHT22;168;48.872;9.226;2023-07-08T11:12:45;32.00;50.80
360;DHT22;168;48.872;9.226;2023-07-08T11:15:18;32.10;50.30
360;DHT22;168;48.872;9.226;2023-07-08T11:17:52;32.20;50.40
360;DHT22;168;48.872;9.226;2023-07-08T11:20:25;32.30;49.70
360;DHT22;168;48.872;9.226;2023-07-08T11:23:00;32.30;49.90
360;DHT22;168;48.872;9.226;2023-07-08T11:25:30;32.30;49.60
360;DHT22;168;48.872;9.226;2023-07-08T11:28:00;32.30;49.90
360;DHT22;168;48.872;9.226;2023-07-08T11:30:30;32.40;49.10
360;DHT22;168;48.872;9.226;2023-07-08T11:33:03;32.40;49.30
360;DHT22;168;48.872;9.226;2023-07-08T11:35:37;32.40;48.80
360;DHT22;168;48.872;9.226;2023-07-08T11:38:06;32.50;49.50
360;DHT22;168;48.872;9.226;2023-07-08T11:40:50;32.60;48.30
360;DHT22;168;48.872;9.226;2023-07-08T11:43:19;32.70;47.70
360;DHT22;168;48.872;9.226;2023-07-08T11:45:49;32.80;47.60
360;DHT22;168;48.872;9.226;2023-07-08T11:48:21;32.90;47.90
360;DHT22;168;48.872;9.226;2023-07-08T11:50:50;33.00;48.10
360;DHT22;168;48.872;9.226;2023-07-08T11:53:34;33.10;47.40
360;DHT22;168;48.872;9.226;2023-07-08T11:56:04;33.20;47.00
360;DHT22;168;48.872;9.226;2023-07-08T11:58:57;33.30;47.10
360;DHT22;168;48.872;9.226;2023-07-08T12:01:28;33.30;46.50
360;DHT22;168;48.872;9.226;2023-07-08T12:04:00;33.30;46.50
360;DHT22;168;48.872;9.226;2023-07-08T12:06:46;33.30;47.40
360;DHT22;168;48.872;9.226;2023-07-08T12:09:20;33.30;46.80
360;DHT22;168;48.872;9.226;2023-07-08T12:11:53;33.30;45.70
360;DHT22;168;48.872;9.226;2023-07-08T12:14:22;33.40;46.30
360;DHT22;168;48.872;9.226;2023-07-08T12:16:50;33.40;45.50
360;DHT22;168;48.872;9.226;2023-07-08T12:19:18;33.40;44.70
360;DHT22;168;48.872;9.226;2023-07-08T12:21:48;33.40;43.70
360;DHT22;168;48.872;9.226;2023-07-08T12:24:15;33.20;45.10
360;DHT22;168;48.872;9.226;2023-07-08T12:26:43;33.10;45.80
360;DHT22;168;48.872;9.226;2023-07-08T12:29:13;33.10;46.10
360;DHT22;168;48.872;9.226;2023-07-08T12:31:41;33.10;45.60
360;DHT22;168;48.872;9.226;2023-07-08T12:34:13;33.10;46.00
360;DHT22;168;48.872;9.226;2023-07-08T12:36:41;33.10;46.10
360;DHT22;168;48.872;9.226;2023-07-08T12:39:12;33.20;46.80
360;DHT22;168;48.872;9.226;2023-07-08T12:41:42;33.20;46.80
360;DHT22;168;48.872;9.226;2023-07-08T12:44:17;33.30;47.20
360;DHT22;168;48.872;9.226;2023-07-08T12:46:46;33.40;46.70
360;DHT22;168;48.872;9.226;2023-07-08T12:49:14;33.40;46.70
360;DHT22;168;48.872;9.226;2023-07-08T12:51:43;33.40;45.50
360;DHT22;168;48.872;9.226;2023-07-08T12:54:11;33.40;46.40
360;DHT22;168;48.872;9.226;2023-07-08T12:56:40;33.50;45.60
360;DHT22;168;48.872;9.226;2023-07-08T12:59:17;33.60;45.80
360;DHT22;168;48.872;9.226;2023-07-08T13:01:45;33.60;46.20
360;DHT22;168;48.872;9.226;2023-07-08T13:04:14;33.70;44.40
360;DHT22;168;48.872;9.226;2023-07-08T13:06:44;33.70;43.80
360;DHT22;168;48.872;9.226;2023-07-08T13:09:29;33.70;44.40
360;DHT22;168;48.872;9.226;2023-07-08T13:12:03;33.60;45.30
360;DHT22;168;48.872;9.226;2023-07-08T13:14:32;33.70;45.30
360;DHT22;168;48.872;9.226;2023-07-08T13:17:00;33.80;45.00
360;DHT22;168;48.872;9.226;2023-07-08T13:19:28;34.00;45.40
360;DHT22;168;48.872;9.226;2023-07-08T13:21:56;34.20;45.60
360;DHT22;168;48.872;9.226;2023-07-08T13:24:25;34.40;45.10
360;DHT22;168;48.872;9.226;2023-07-08T13:26:56;34.60;44.80
360;DHT22;168;48.872;9.226;2023-07-08T13:29:24;34.90;43.70
360;DHT22;168;48.872;9.226;2023-07-08T13:32:01;35.00;43.80
360;DHT22;168;48.872;9.226;2023-07-08T13:34:28;35.20;43.80
360;DHT22;168;48.872;9.226;2023-07-08T13:36:56;35.30;42.50
360;DHT22;168;48.872;9.226;2023-07-08T13:39:27;35.30;42.60
360;DHT22;168;48.872;9.226;2023-07-08T13:41:55;35.30;42.60
360;DHT22;168;48.872;9.226;2023-07-08T13:44:23;35.30;43.50
360;DHT22;168;48.872;9.226;2023-07-08T13:46:53;35.40;43.40
360;DHT22;168;48.872;9.226;2023-07-08T13:49:24;35.60;43.20
360;DHT22;168;48.872;9.226;2023-07-08T13:52:05;35.90;42.70
360;DHT22;168;48.872;9.226;2023-07-08T13:54:35;36.10;42.60
360;DHT22;168;48.872;9.226;2023-07-08T13:57:15;36.40;41.70
360;DHT22;168;48.872;9.226;2023-07-08T13:59:43;36.50;41.10
360;DHT22;168;48.872;9.226;2023-07-08T14:02:16;36.60;41.10
360;DHT22;168;48.872;9.226;2023-07-08T14:04:44;36.80;41.40
360;DHT22;168;48.872;9.226;2023-07-08T14:07:16;37.10;41.20
360;DHT22;168;48.872;9.226;2023-07-08T14:09:44;37.40;40.80
360;DHT22;168;48.872;9.226;2023-07-08T14:12:12;37.70;39.60
360;DHT22;168;48.872;9.226;2023-07-08T14:14:39;37.90;39.80
360;DHT22;168;48.872;9.226;2023-07-08T14:17:08;38.20;39.90
360;DHT22;168;48.872;9.226;2023-07-08T14:19:39;38.50;39.40
360;DHT22;168;48.872;9.226;2023-07-08T14:22:19;38.70;39.40
360;DHT22;168;48.872;9.226;2023-07-08T14:24:48;39.00;38.30
360;DHT22;168;48.872;9.226;2023-07-08T14:27:15;39.20;38.30
360;DHT22;168;48.872;9.226;2023-07-08T14:29:46;39.30;38.20
360;DHT22;168;48.872;9.226;2023-07-08T14:32:14;39.40;37.70
360;DHT22;168;48.872;9.226;2023-07-08T14:34:49;39.50;37.90
360;DHT22;168;48.872;9.226;2023-07-08T14:37:17;39.40;37.90
360;DHT22;168;48.872;9.226;2023-07-08T14:39:44;39.10;37.90
360;DHT22;168;48.872;9.226;2023-07-08T14:42:13;38.90;36.90
360;DHT22;168;48.872;9.226;2023-07-08T14:44:44;38.60;36.90
360;DHT22;168;48.872;9.226;2023-07-08T14:47:15;38.40;38.00
360;DHT22;168;48.872;9.226;2023-07-08T14:49:44;38.20;38.30
360;DHT22;168;48.872;9.226;2023-07-08T14:52:12;37.90;38.80
360;DHT22;168;48.872;9.226;2023-07-08T14:54:39;37.80;39.20
360;DHT22;168;48.872;9.226;2023-07-08T14:57:09;37.60;39.50
360;DHT22;168;48.872;9.226;2023-07-08T14:59:37;37.40;39.80
360;DHT22;168;48.872;9.226;2023-07-08T15:02:17;37.60;39.70
360;DHT22;168;48.872;9.226;2023-07-08T15:04:47;37.90;39.20
360;DHT22;168;48.872;9.226;2023-07-08T15:07:14;38.30;38.30
360;DHT22;168;48.872;9.226;2023-07-08T15:09:41;38.60;38.80
360;DHT22;168;48.872;9.226;2023-07-08T15:12:10;38.90;39.10
360;DHT22;168;48.872;9.226;2023-07-08T15:14:38;39.30;37.90
360;DHT22;168;48.872;9.226;2023-07-08T15:17:12;39.50;38.00
360;DHT22;168;48.872;9.226;2023-07-08T15:19:42;39.80;37.00
360;DHT22;168;48.872;9.226;2023-07-08T15:22:11;40.00;37.50
360;DHT22;168;48.872;9.226;2023-07-08T15:24:38;40.40;37.40
360;DHT22;168;48.872;9.226;2023-07-08T15:27:08;40.80;37.00
360;DHT22;168;48.872;9.226;2023-07-08T15:29:36;41.20;35.80
360;DHT22;168;48.872;9.226;2023-07-08T15:32:07;41.30;35.70
360;DHT22;168;48.872;9.226;2023-07-08T15:34:36;41.30;35.20
360;DHT22;168;48.872;9.226;2023-07-08T15:37:04;41.30;35.40
360;DHT22;168;48.872;9.226;2023-07-08T15:39:33;41.20;35.60
360;DHT22;168;48.872;9.226;2023-07-08T15:42:01;40.80;35.90
360;DHT22;168;48.872;9.226;2023-07-08T15:44:28;40.60;35.50
360;DHT22;168;48.872;9.226;2023-07-08T15:46:56;40.50;36.30
360;DHT22;168;48.872;9.226;2023-07-08T15:49:25;40.40;36.80
360;DHT22;168;48.872;9.226;2023-07-08T15:51:56;40.50;36.00
360;DHT22;168;48.872;9.226;2023-07-08T15:54:23;40.60;36.30
360;DHT22;168;48.872;9.226;2023-07-08T15:56:53;40.60;36.10
360;DHT22;168;48.872;9.226;2023-07-08T15:59:24;40.80;35.70
360;DHT22;168;48.872;9.226;2023-07-08T16:01:53;40.90;35.90
360;DHT22;168;48.872;9.226;2023-07-08T16:04:24;40.90;35.60
360;DHT22;168;48.872;9.226;2023-07-08T16:06:52;40.90;35.70
360;DHT22;168;48.872;9.226;2023-07-08T16:09:19;41.00;35.50
360;DHT22;168;48.872;9.226;2023-07-08T16:11:47;41.10;35.40
360;DHT22;168;48.872;9.226;2023-07-08T16:14:16;41.10;35.30
360;DHT22;168;48.872;9.226;2023-07-08T16:16:46;41.20;35.70
360;DHT22;168;48.872;9.226;2023-07-08T16:19:14;41.40;35.60
360;DHT22;168;48.872;9.226;2023-07-08T16:21:41;41.70;35.70
360;DHT22;168;48.872;9.226;2023-07-08T16:24:09;42.00;35.30
360;DHT22;168;48.872;9.226;2023-07-08T16:26:37;42.30;35.10
360;DHT22;168;48.872;9.226;2023-07-08T16:29:06;42.60;34.40
360;DHT22;168;48.872;9.226;2023-07-08T16:31:36;42.90;34.50
360;DHT22;168;48.872;9.226;2023-07-08T16:34:04;43.10;34.10
360;DHT22;168;48.872;9.226;2023-07-08T16:36:32;43.40;34.00
360;DHT22;168;48.872;9.226;2023-07-08T16:38:59;43.60;33.20
360;DHT22;168;48.872;9.226;2023-07-08T16:41:30;43.50;33.80
360;DHT22;168;48.872;9.226;2023-07-08T16:43:59;43.40;33.40
360;DHT22;168;48.872;9.226;2023-07-08T16:46:26;43.20;33.70
360;DHT22;168;48.872;9.226;2023-07-08T16:48:55;43.00;33.80
360;DHT22;168;48.872;9.226;2023-07-08T16:51:25;42.70;34.50
360;DHT22;168;48.872;9.226;2023-07-08T16:53:56;42.70;34.50
360;DHT22;168;48.872;9.226;2023-07-08T16:56:24;42.70;34.40
360;DHT22;168;48.872;9.226;2023-07-08T16:58:51;42.80;34.70
360;DHT22;168;48.872;9.226;2023-07-08T17:01:21;42.90;34.90
360;DHT22;168;48.872;9.226;2023-07-08T17:03:50;42.90;35.00
360;DHT22;168;48.872;9.226;2023-07-08T17:06:20;43.00;34.80
360;DHT22;168;48.872;9.226;2023-07-08T17:08:47;42.90;34.30
360;DHT22;168;48.872;9.226;2023-07-08T17:11:15;42.80;34.70
360;DHT22;168;48.872;9.226;2023-07-08T17:13:43;42.80;34.90
360;DHT22;168;48.872;9.226;2023-07-08T17:16:14;42.80;34.80
360;DHT22;168;48.872;9.226;2023-07-08T17:18:42;42.70;34.90
360;DHT22;168;48.872;9.226;2023-07-08T17:21:13;42.80;34.80
360;DHT22;168;48.872;9.226;2023-07-08T17:23:42;42.90;35.00
360;DHT22;168;48.872;9.226;2023-07-08T17:26:09;42.70;35.00
360;DHT22;168;48.872;9.226;2023-07-08T17:28:37;42.60;35.00